createdAt,value
2023-05-21T00:00:22.112Z,0.00
2023-05-21T00:01:25.398Z,0.00
2023-05-21T00:02:28.764Z,0.00
2023-05-21T00:03:31.933Z,0.00
2023-05-21T00:04:34.944Z,0.00
2023-05-21T00:05:38.424Z,0.00
2023-05-21T00:06:42.032Z,0.00
2023-05-21T00:07:45.311Z,0.00
2023-05-21T00:08:48.490Z,0.00
2023-05-21T00:09:51.572Z,0.00
2023-05-21T00:10:54.857Z,0.00
2023-05-21T00:11:57.936Z,0.00
2023-05-21T00:13:01.040Z,0.00
2023-05-21T00:14:04.204Z,0.00
2023-05-21T00:15:07.482Z,0.00
2023-05-21T00:16:10.488Z,0.00
2023-05-21T00:17:13.743Z,0.00
2023-05-21T00:18:17.023Z,0.00
2023-05-21T00:19:20.252Z,0.00
2023-05-21T00:20:23.499Z,0.00
2023-05-21T00:21:26.651Z,0.00
2023-05-21T00:22:29.954Z,0.00
2023-05-21T00:23:32.897Z,0.00
2023-05-21T00:24:36.123Z,0.00
2023-05-21T00:25:39.609Z,0.00
2023-05-21T00:26:43.007Z,0.00
2023-05-21T00:27:46.290Z,0.00
2023-05-21T00:28:49.424Z,0.00
2023-05-21T00:29:52.840Z,0.00
2023-05-21T00:30:56.231Z,0.00
2023-05-21T00:32:00.178Z,0.00
2023-05-21T00:33:03.574Z,0.00
2023-05-21T00:34:06.935Z,0.00
2023-05-21T00:35:10.294Z,0.00
2023-05-21T00:36:13.588Z,0.00
2023-05-21T00:37:16.865Z,0.00
2023-05-21T00:38:20.447Z,0.00
2023-05-21T00:39:23.749Z,0.00
2023-05-21T00:40:26.708Z,0.00
2023-05-21T00:41:30.139Z,0.00
2023-05-21T00:42:33.449Z,0.00
2023-05-21T00:43:36.772Z,0.00
2023-05-21T00:44:40.156Z,0.00
2023-05-21T00:45:43.375Z,0.00
2023-05-21T00:46:46.619Z,0.00
2023-05-21T00:47:49.851Z,0.00
2023-05-21T00:48:53.001Z,0.00
2023-05-21T00:49:56.074Z,0.00
2023-05-21T00:50:59.150Z,0.00
2023-05-21T00:52:02.345Z,0.00
2023-05-21T00:53:05.509Z,0.00
2023-05-21T00:54:08.700Z,0.00
2023-05-21T00:55:11.858Z,0.00
2023-05-21T00:56:14.912Z,0.00
2023-05-21T00:57:18.151Z,0.00
2023-05-21T00:58:21.312Z,0.00
2023-05-21T00:59:24.300Z,0.00
2023-05-21T01:00:27.334Z,0.00
2023-05-21T01:01:30.770Z,0.00
2023-05-21T01:02:34.059Z,0.00
2023-05-21T01:03:37.353Z,0.00
2023-05-21T01:04:40.585Z,0.00
2023-05-21T01:05:43.886Z,0.00
2023-05-21T01:06:47.375Z,0.00
2023-05-21T01:07:50.864Z,0.00
2023-05-21T01:08:54.259Z,0.00
2023-05-21T01:09:57.240Z,0.00
2023-05-21T01:11:00.584Z,0.00
2023-05-21T01:12:03.800Z,0.00
2023-05-21T01:13:06.881Z,0.00
2023-05-21T01:14:10.279Z,0.00
2023-05-21T01:15:14.216Z,0.00
2023-05-21T01:16:17.708Z,0.00
2023-05-21T01:17:21.170Z,0.00
2023-05-21T01:18:24.664Z,0.00
2023-05-21T01:19:27.940Z,0.00
2023-05-21T01:20:31.201Z,0.00
2023-05-21T01:21:34.597Z,0.00
2023-05-21T01:22:37.876Z,0.00
2023-05-21T01:23:41.260Z,0.00
2023-05-21T01:24:44.541Z,0.00
2023-05-21T01:25:48.031Z,0.00
2023-05-21T01:26:51.313Z,0.00
2023-05-21T01:27:54.513Z,0.00
2023-05-21T01:28:57.906Z,0.00
2023-05-21T01:30:01.269Z,0.00
2023-05-21T01:31:04.448Z,0.00
2023-05-21T01:32:07.738Z,0.00
2023-05-21T01:33:11.160Z,0.00
2023-05-21T01:34:14.524Z,0.00
2023-05-21T01:35:17.917Z,0.00
2023-05-21T01:36:21.185Z,0.00
2023-05-21T01:37:24.568Z,0.00
2023-05-21T01:38:27.959Z,0.00
2023-05-21T01:39:31.354Z,0.00
2023-05-21T01:40:34.618Z,0.00
2023-05-21T01:41:37.455Z,0.00
2023-05-21T01:42:40.694Z,0.00
2023-05-21T01:43:43.981Z,0.00
2023-05-21T01:44:47.351Z,0.00
2023-05-21T01:45:50.636Z,0.00
2023-05-21T01:46:53.985Z,0.00
2023-05-21T01:47:57.257Z,0.00
2023-05-21T01:49:00.699Z,0.00
2023-05-21T01:50:04.021Z,0.00
2023-05-21T01:51:07.381Z,0.00
2023-05-21T01:52:10.777Z,0.00
2023-05-21T01:53:14.111Z,0.00
2023-05-21T01:54:17.427Z,0.00
2023-05-21T01:55:20.918Z,0.00
2023-05-21T01:56:24.407Z,0.00
2023-05-21T01:57:27.916Z,0.00
2023-05-21T01:58:31.293Z,0.00
2023-05-21T01:59:34.465Z,0.00
2023-05-21T02:00:37.849Z,0.00
2023-05-21T02:01:42.508Z,0.00
2023-05-21T02:02:45.968Z,0.00
2023-05-21T02:03:49.440Z,0.00
2023-05-21T02:04:52.843Z,0.00
2023-05-21T02:05:56.136Z,0.00
2023-05-21T02:06:59.205Z,0.00
2023-05-21T02:08:02.687Z,0.00
2023-05-21T02:09:06.070Z,0.00
2023-05-21T02:10:09.415Z,0.00
2023-05-21T02:11:12.605Z,0.00
2023-05-21T02:12:15.941Z,0.00
2023-05-21T02:13:19.204Z,0.00
2023-05-21T02:14:22.699Z,0.00
2023-05-21T02:15:26.096Z,0.00
2023-05-21T02:16:29.387Z,0.00
2023-05-21T02:17:32.767Z,0.00
2023-05-21T02:18:35.938Z,0.00
2023-05-21T02:19:39.112Z,0.00
2023-05-21T02:20:42.296Z,0.00
2023-05-21T02:21:45.484Z,0.00
2023-05-21T02:22:48.867Z,0.00
2023-05-21T02:23:52.153Z,0.00
2023-05-21T02:24:55.237Z,0.00
2023-05-21T02:25:58.384Z,0.00
2023-05-21T02:27:01.228Z,0.00
2023-05-21T02:28:04.271Z,0.00
2023-05-21T02:29:07.448Z,0.00
2023-05-21T02:30:10.658Z,0.00
2023-05-21T02:31:13.713Z,0.00
2023-05-21T02:32:16.693Z,0.00
2023-05-21T02:33:21.387Z,0.00
2023-05-21T02:34:24.037Z,0.00
2023-05-21T02:35:26.904Z,0.00
2023-05-21T02:36:29.830Z,0.00
2023-05-21T02:37:32.901Z,0.00
2023-05-21T02:38:36.091Z,0.00
2023-05-21T02:39:39.325Z,0.00
2023-05-21T02:40:42.620Z,0.00
2023-05-21T02:41:46.037Z,0.00
2023-05-21T02:42:49.335Z,0.00
2023-05-21T02:43:52.713Z,0.00
2023-05-21T02:44:56.097Z,0.00
2023-05-21T02:45:59.641Z,0.00
2023-05-21T02:47:02.770Z,0.00
2023-05-21T02:48:05.828Z,0.00
2023-05-21T02:49:08.795Z,0.00
2023-05-21T02:50:11.911Z,0.00
2023-05-21T02:51:15.003Z,0.00
2023-05-21T02:52:18.193Z,0.00
2023-05-21T02:53:21.446Z,0.00
2023-05-21T02:54:24.733Z,0.00
2023-05-21T02:55:27.944Z,0.00
2023-05-21T02:56:31.094Z,0.00
2023-05-21T02:57:34.278Z,0.00
2023-05-21T02:58:37.566Z,0.00
2023-05-21T02:59:40.541Z,0.00
2023-05-21T03:00:43.729Z,0.00
2023-05-21T03:01:47.030Z,0.00
2023-05-21T03:02:50.322Z,0.00
2023-05-21T03:03:53.475Z,0.00
2023-05-21T03:04:56.665Z,0.00
2023-05-21T03:05:59.946Z,0.00
2023-05-21T03:07:03.121Z,0.00
2023-05-21T03:08:06.207Z,0.00
2023-05-21T03:09:09.386Z,0.00
2023-05-21T03:10:12.567Z,0.00
2023-05-21T03:11:15.889Z,0.00
2023-05-21T03:12:19.038Z,0.00
2023-05-21T03:13:22.241Z,0.00
2023-05-21T03:14:25.392Z,0.00
2023-05-21T03:15:28.589Z,0.00
2023-05-21T03:16:31.887Z,0.00
2023-05-21T03:17:34.789Z,0.00
2023-05-21T03:18:37.818Z,0.00
2023-05-21T03:19:40.893Z,0.00
2023-05-21T03:20:44.079Z,0.00
2023-05-21T03:21:47.264Z,0.00
2023-05-21T03:22:50.350Z,0.00
2023-05-21T03:23:53.528Z,0.00
2023-05-21T03:24:56.710Z,0.00
2023-05-21T03:25:59.895Z,0.00
2023-05-21T03:27:03.063Z,0.00
2023-05-21T03:28:06.156Z,0.00
2023-05-21T03:29:09.469Z,0.00
2023-05-21T03:30:12.628Z,0.00
2023-05-21T03:31:15.694Z,0.00
2023-05-21T03:32:18.802Z,0.00
2023-05-21T03:33:21.848Z,0.00
2023-05-21T03:34:25.017Z,0.00
2023-05-21T03:35:28.076Z,0.00
2023-05-21T03:36:32.222Z,0.00
2023-05-21T03:37:35.594Z,0.00
2023-05-21T03:38:38.993Z,0.00
2023-05-21T03:39:42.166Z,0.00
2023-05-21T03:40:45.662Z,0.00
2023-05-21T03:41:49.166Z,0.00
2023-05-21T03:42:52.247Z,0.00
2023-05-21T03:43:55.314Z,0.00
2023-05-21T03:44:58.179Z,0.00
2023-05-21T03:46:01.445Z,0.67
2023-05-21T03:47:04.634Z,0.00
2023-05-21T03:48:07.789Z,0.00
2023-05-21T03:49:10.908Z,0.00
2023-05-21T03:50:13.996Z,0.00
2023-05-21T03:51:17.286Z,0.00
2023-05-21T03:52:20.353Z,0.00
2023-05-21T03:53:23.327Z,0.00
2023-05-21T03:54:26.540Z,0.00
2023-05-21T03:55:29.592Z,0.00
2023-05-21T03:56:32.570Z,0.00
2023-05-21T03:57:35.638Z,0.00
2023-05-21T03:58:38.632Z,0.00
2023-05-21T03:59:41.806Z,0.00
2023-05-21T04:00:45.196Z,0.00
2023-05-21T04:01:48.441Z,0.00
2023-05-21T04:02:51.866Z,0.00
2023-05-21T04:03:55.399Z,0.00
2023-05-21T04:04:58.849Z,0.00
2023-05-21T04:06:02.337Z,0.00
2023-05-21T04:07:05.732Z,0.00
2023-05-21T04:08:09.121Z,0.00
2023-05-21T04:09:12.486Z,0.00
2023-05-21T04:10:15.694Z,0.00
2023-05-21T04:11:18.864Z,0.00
2023-05-21T04:12:22.245Z,0.00
2023-05-21T04:13:25.396Z,0.00
2023-05-21T04:14:28.718Z,0.00
2023-05-21T04:15:32.101Z,0.00
2023-05-21T04:16:35.607Z,0.00
2023-05-21T04:17:39.028Z,0.00
2023-05-21T04:18:43.557Z,0.00
2023-05-21T04:19:46.578Z,0.00
2023-05-21T04:20:50.023Z,0.00
2023-05-21T04:21:53.436Z,0.00
2023-05-21T04:22:56.783Z,0.00
2023-05-21T04:24:00.009Z,0.00
2023-05-21T04:25:03.304Z,0.00
2023-05-21T04:26:06.716Z,0.00
2023-05-21T04:27:09.759Z,0.00
2023-05-21T04:28:13.052Z,0.00
2023-05-21T04:29:16.430Z,0.00
2023-05-21T04:30:19.941Z,0.00
2023-05-21T04:31:22.828Z,0.00
2023-05-21T04:32:26.102Z,0.00
2023-05-21T04:33:29.334Z,0.00
2023-05-21T04:34:32.559Z,0.00
2023-05-21T04:35:36.031Z,0.00
2023-05-21T04:36:39.209Z,0.00
2023-05-21T04:37:42.498Z,0.00
2023-05-21T04:38:45.817Z,0.00
2023-05-21T04:39:49.379Z,0.00
2023-05-21T04:40:52.774Z,0.00
2023-05-21T04:41:56.003Z,0.00
2023-05-21T04:42:59.188Z,0.00
2023-05-21T04:44:02.584Z,0.00
2023-05-21T04:45:05.697Z,0.00
2023-05-21T04:46:09.004Z,0.00
2023-05-21T04:47:12.565Z,0.00
2023-05-21T04:48:16.482Z,0.00
2023-05-21T04:49:19.758Z,0.00
2023-05-21T04:50:23.236Z,0.00
2023-05-21T04:51:26.528Z,0.00
2023-05-21T04:52:29.873Z,0.00
2023-05-21T04:53:32.994Z,0.00
2023-05-21T04:54:36.415Z,0.00
2023-05-21T04:55:39.573Z,0.00
2023-05-21T04:56:42.949Z,0.00
2023-05-21T04:57:46.240Z,0.00
2023-05-21T04:58:49.221Z,0.00
2023-05-21T04:59:52.384Z,0.00
2023-05-21T05:00:55.800Z,0.00
2023-05-21T05:01:59.064Z,0.00
2023-05-21T05:03:02.522Z,0.00
2023-05-21T05:04:06.004Z,0.00
2023-05-21T05:05:09.328Z,0.00
2023-05-21T05:06:12.478Z,0.00
2023-05-21T05:07:15.491Z,0.00
2023-05-21T05:08:18.740Z,0.00
2023-05-21T05:09:22.046Z,0.00
2023-05-21T05:10:25.435Z,0.00
2023-05-21T05:11:28.729Z,0.00
2023-05-21T05:12:31.921Z,0.00
2023-05-21T05:13:35.192Z,0.00
2023-05-21T05:14:38.270Z,0.00
2023-05-21T05:15:41.350Z,0.00
2023-05-21T05:16:44.449Z,0.00
2023-05-21T05:17:47.649Z,0.00
2023-05-21T05:18:50.847Z,0.00
2023-05-21T05:19:53.835Z,0.00
2023-05-21T05:20:56.958Z,0.00
2023-05-21T05:22:00.057Z,0.00
2023-05-21T05:23:03.323Z,0.00
2023-05-21T05:24:06.514Z,0.00
2023-05-21T05:25:09.683Z,0.00
2023-05-21T05:26:12.975Z,0.00
2023-05-21T05:27:16.180Z,0.00
2023-05-21T05:28:19.248Z,0.00
2023-05-21T05:29:22.104Z,0.00
2023-05-21T05:30:25.409Z,0.00
2023-05-21T05:31:28.811Z,0.00
2023-05-21T05:32:32.078Z,0.00
2023-05-21T05:33:35.457Z,0.00
2023-05-21T05:34:38.868Z,0.00
2023-05-21T05:35:42.229Z,0.00
2023-05-21T05:36:45.740Z,0.00
2023-05-21T05:37:48.908Z,0.00
2023-05-21T05:38:52.277Z,0.00
2023-05-21T05:39:55.417Z,0.00
2023-05-21T05:40:58.706Z,0.00
2023-05-21T05:42:01.936Z,0.00
2023-05-21T05:43:05.211Z,0.00
2023-05-21T05:44:10.744Z,0.00
2023-05-21T05:45:13.123Z,0.00
2023-05-21T05:46:16.478Z,0.00
2023-05-21T05:47:19.438Z,0.00
2023-05-21T05:48:22.770Z,0.00
2023-05-21T05:49:26.345Z,0.00
2023-05-21T05:50:29.639Z,0.00
2023-05-21T05:51:32.958Z,0.00
2023-05-21T05:52:36.302Z,0.00
2023-05-21T05:53:39.685Z,0.00
2023-05-21T05:54:42.667Z,0.00
2023-05-21T05:55:45.857Z,0.00
2023-05-21T05:56:49.232Z,0.00
2023-05-21T05:57:52.736Z,0.00
2023-05-21T05:58:56.320Z,0.00
2023-05-21T06:00:01.240Z,0.00
2023-05-21T06:01:04.518Z,0.00
2023-05-21T06:02:08.058Z,0.00
2023-05-21T06:03:11.471Z,0.00
2023-05-21T06:04:14.825Z,0.00
2023-05-21T06:05:18.204Z,0.00
2023-05-21T06:06:21.406Z,0.00
2023-05-21T06:07:24.742Z,0.00
2023-05-21T06:08:27.820Z,0.00
2023-05-21T06:09:31.318Z,0.00
2023-05-21T06:10:34.866Z,0.00
2023-05-21T06:11:38.179Z,0.00
2023-05-21T06:12:41.573Z,0.00
2023-05-21T06:13:44.647Z,0.00
2023-05-21T06:14:47.728Z,0.00
2023-05-21T06:15:50.818Z,0.00
2023-05-21T06:16:53.844Z,0.00
2023-05-21T06:17:56.944Z,0.00
2023-05-21T06:19:00.096Z,0.00
2023-05-21T06:20:03.129Z,0.00
2023-05-21T06:21:06.107Z,0.00
2023-05-21T06:22:09.045Z,0.00
2023-05-21T06:23:12.016Z,0.00
2023-05-21T06:24:15.139Z,0.00
2023-05-21T06:25:18.104Z,0.00
2023-05-21T06:26:21.314Z,0.00
2023-05-21T06:27:24.264Z,0.00
2023-05-21T06:28:27.349Z,0.00
2023-05-21T06:29:30.344Z,0.00
2023-05-21T06:30:33.418Z,0.00
2023-05-21T06:31:36.710Z,0.00
2023-05-21T06:32:40.074Z,0.00
2023-05-21T06:33:43.377Z,0.00
2023-05-21T06:34:46.438Z,0.00
2023-05-21T06:35:49.516Z,0.00
2023-05-21T06:36:52.809Z,0.00
2023-05-21T06:37:56.102Z,0.00
2023-05-21T06:38:59.301Z,0.00
2023-05-21T06:40:02.359Z,0.00
2023-05-21T06:41:05.435Z,0.00
2023-05-21T06:42:08.483Z,0.00
2023-05-21T06:43:11.698Z,0.00
2023-05-21T06:44:14.667Z,0.00
2023-05-21T06:45:17.762Z,0.00
2023-05-21T06:46:20.996Z,0.00
2023-05-21T06:47:24.034Z,0.00
2023-05-21T06:48:26.959Z,0.00
2023-05-21T06:49:30.033Z,0.00
2023-05-21T06:50:33.268Z,0.00
2023-05-21T06:51:36.330Z,0.00
2023-05-21T06:52:39.441Z,0.00
2023-05-21T06:53:42.609Z,0.00
2023-05-21T06:54:47.281Z,0.00
2023-05-21T06:55:49.791Z,0.00
2023-05-21T06:56:52.960Z,0.00
2023-05-21T06:57:56.141Z,0.00
2023-05-21T06:58:59.118Z,0.00
2023-05-21T07:00:02.305Z,0.00
2023-05-21T07:01:05.503Z,0.00
2023-05-21T07:02:08.782Z,0.00
2023-05-21T07:03:12.179Z,0.00
2023-05-21T07:04:15.491Z,0.00
2023-05-21T07:05:18.625Z,0.00
2023-05-21T07:06:21.892Z,0.00
2023-05-21T07:07:25.094Z,0.00
2023-05-21T07:08:28.168Z,0.00
2023-05-21T07:09:31.452Z,0.00
2023-05-21T07:10:34.594Z,0.00
2023-05-21T07:11:37.719Z,0.00
2023-05-21T07:12:40.789Z,0.00
2023-05-21T07:13:43.888Z,0.00
2023-05-21T07:14:46.954Z,0.00
2023-05-21T07:15:50.037Z,0.00
2023-05-21T07:16:53.040Z,0.00
2023-05-21T07:17:56.286Z,0.00
2023-05-21T07:18:59.546Z,0.00
2023-05-21T07:20:02.685Z,0.00
2023-05-21T07:21:05.794Z,0.00
2023-05-21T07:22:09.444Z,0.00
2023-05-21T07:23:12.605Z,0.00
2023-05-21T07:24:15.498Z,0.00
2023-05-21T07:25:18.656Z,0.00
2023-05-21T07:26:21.945Z,0.00
2023-05-21T07:27:26.067Z,0.00
2023-05-21T07:28:29.653Z,0.00
2023-05-21T07:29:32.925Z,0.00
2023-05-21T07:30:36.219Z,0.00
2023-05-21T07:31:39.712Z,0.00
2023-05-21T07:32:43.021Z,0.00
2023-05-21T07:33:46.266Z,0.00
2023-05-21T07:34:49.554Z,0.00
2023-05-21T07:35:53.044Z,0.00
2023-05-21T07:36:56.324Z,0.00
2023-05-21T07:37:59.775Z,0.00
2023-05-21T07:39:02.994Z,0.00
2023-05-21T07:40:06.394Z,0.00
2023-05-21T07:41:09.977Z,0.00
2023-05-21T07:42:13.457Z,0.00
2023-05-21T07:43:16.851Z,0.00
2023-05-21T07:44:20.169Z,0.00
2023-05-21T07:45:23.306Z,0.00
2023-05-21T07:46:26.833Z,0.00
2023-05-21T07:47:30.366Z,0.00
2023-05-21T07:48:35.434Z,0.00
2023-05-21T07:49:38.296Z,0.00
2023-05-21T07:50:41.789Z,0.00
2023-05-21T07:51:45.184Z,0.00
2023-05-21T07:52:48.600Z,0.29
2023-05-21T07:53:53.229Z,0.57
2023-05-21T07:54:56.463Z,0.00
2023-05-21T07:55:59.848Z,0.00
2023-05-21T07:57:03.138Z,0.00
2023-05-21T07:58:06.529Z,0.00
2023-05-21T07:59:10.544Z,0.00
2023-05-21T08:00:14.345Z,0.00
2023-05-21T08:01:17.715Z,0.00
2023-05-21T08:02:21.052Z,0.00
2023-05-21T08:03:24.320Z,0.43
2023-05-21T08:04:27.840Z,0.57
2023-05-21T08:05:30.934Z,0.43
2023-05-21T08:06:34.323Z,0.57
2023-05-21T08:07:37.412Z,0.00
2023-05-21T08:08:40.587Z,0.00
2023-05-21T08:09:43.683Z,0.00
2023-05-21T08:10:46.859Z,0.00
2023-05-21T08:11:50.421Z,0.17
2023-05-21T08:12:53.603Z,0.57
2023-05-21T08:13:57.094Z,0.33
2023-05-21T08:15:00.340Z,0.00
2023-05-21T08:16:03.768Z,0.29
2023-05-21T08:17:07.149Z,0.43
2023-05-21T08:18:10.811Z,0.57
2023-05-21T08:19:14.395Z,0.00
2023-05-21T08:20:17.716Z,0.00
2023-05-21T08:21:20.904Z,0.00
2023-05-21T08:22:24.393Z,0.33
2023-05-21T08:23:27.748Z,0.50
2023-05-21T08:24:31.474Z,0.00
2023-05-21T08:25:35.696Z,0.43
2023-05-21T08:26:39.488Z,1.00
2023-05-21T08:27:43.069Z,0.50
2023-05-21T08:28:46.552Z,0.43
2023-05-21T08:29:49.717Z,1.00
2023-05-21T08:30:53.127Z,1.43
2023-05-21T08:31:56.603Z,1.57
2023-05-21T08:33:00.465Z,1.00
2023-05-21T08:34:03.695Z,1.00
2023-05-21T08:35:07.083Z,1.00
2023-05-21T08:36:10.796Z,0.57
2023-05-21T08:37:14.442Z,0.00
2023-05-21T08:38:17.689Z,0.00
2023-05-21T08:39:21.347Z,1.00
2023-05-21T08:40:25.035Z,1.00
2023-05-21T08:41:30.148Z,1.00
2023-05-21T08:42:37.091Z,1.00
2023-05-21T08:43:37.873Z,1.12
2023-05-21T08:44:41.350Z,0.88
2023-05-21T08:45:45.046Z,0.00
2023-05-21T08:46:48.634Z,0.43
2023-05-21T08:47:52.105Z,1.00
2023-05-21T08:48:55.717Z,1.00
2023-05-21T08:49:59.713Z,1.00
2023-05-21T08:51:03.097Z,1.50
2023-05-21T08:52:06.671Z,1.57
2023-05-21T08:53:19.497Z,1.43
2023-05-21T08:54:14.575Z,1.75
2023-05-21T08:55:18.186Z,1.00
2023-05-21T08:56:21.770Z,1.43
2023-05-21T08:57:25.138Z,2.00
2023-05-21T08:58:28.464Z,1.86
2023-05-21T08:59:32.048Z,1.00
2023-05-21T09:00:35.429Z,1.00
2023-05-21T09:01:39.022Z,1.00
2023-05-21T09:02:42.458Z,1.00
2023-05-21T09:03:46.169Z,1.43
2023-05-21T09:04:49.681Z,2.00
2023-05-21T09:05:53.276Z,1.71
2023-05-21T09:06:56.866Z,2.14
2023-05-21T09:08:00.503Z,2.00
2023-05-21T09:09:03.918Z,1.57
2023-05-21T09:10:07.349Z,1.43
2023-05-21T09:11:10.502Z,2.00
2023-05-21T09:12:13.685Z,1.57
2023-05-21T09:13:17.185Z,1.00
2023-05-21T09:14:20.877Z,1.00
2023-05-21T09:15:24.390Z,1.43
2023-05-21T09:16:27.788Z,1.57
2023-05-21T09:17:31.457Z,1.00
2023-05-21T09:18:35.054Z,1.00
2023-05-21T09:19:38.840Z,1.43
2023-05-21T09:20:42.430Z,2.00
2023-05-21T09:21:45.846Z,1.43
2023-05-21T09:22:49.070Z,2.00
2023-05-21T09:23:52.608Z,1.71
2023-05-21T09:24:55.871Z,2.00
2023-05-21T09:25:59.269Z,2.00
2023-05-21T09:27:02.767Z,1.57
2023-05-21T09:28:05.914Z,1.00
2023-05-21T09:29:08.990Z,1.33
2023-05-21T09:30:12.169Z,1.43
2023-05-21T09:31:15.541Z,1.86
2023-05-21T09:32:18.964Z,1.14
2023-05-21T09:33:22.354Z,2.00
2023-05-21T09:34:25.639Z,1.14
2023-05-21T09:35:28.805Z,1.43
2023-05-21T09:36:32.122Z,1.57
2023-05-21T09:37:35.250Z,0.71
2023-05-21T09:38:38.584Z,1.00
2023-05-21T09:39:41.852Z,1.29
2023-05-21T09:40:45.237Z,0.57
2023-05-21T09:41:48.528Z,0.67
2023-05-21T09:42:51.850Z,1.33
2023-05-21T09:43:54.986Z,1.67
2023-05-21T09:44:58.151Z,1.00
2023-05-21T09:46:02.158Z,1.00
2023-05-21T09:47:05.575Z,0.88
2023-05-21T09:48:08.704Z,1.14
2023-05-21T09:49:12.014Z,1.57
2023-05-21T09:50:15.314Z,1.00
2023-05-21T09:51:18.595Z,1.00
2023-05-21T09:52:22.190Z,1.00
2023-05-21T09:53:25.677Z,1.00
2023-05-21T09:54:28.955Z,1.00
2023-05-21T09:55:32.129Z,1.00
2023-05-21T09:56:35.497Z,1.00
2023-05-21T09:57:38.705Z,1.00
2023-05-21T09:58:42.000Z,0.57
2023-05-21T09:59:45.273Z,0.43
2023-05-21T10:00:48.766Z,0.57
2023-05-21T10:01:51.946Z,1.00
2023-05-21T10:02:55.312Z,1.00
2023-05-21T10:03:58.871Z,0.57
2023-05-21T10:05:02.212Z,0.00
2023-05-21T10:06:05.492Z,0.00
2023-05-21T10:07:08.747Z,0.43
2023-05-21T10:08:11.841Z,0.57
2023-05-21T10:09:15.046Z,0.33
2023-05-21T10:10:18.221Z,1.00
2023-05-21T10:11:21.723Z,1.00
2023-05-21T10:12:24.995Z,0.57
2023-05-21T10:13:28.381Z,0.29
2023-05-21T10:14:31.699Z,0.00
2023-05-21T10:15:34.958Z,0.43
2023-05-21T10:16:38.177Z,1.00
2023-05-21T10:17:41.556Z,1.00
2023-05-21T10:18:44.837Z,0.57
2023-05-21T10:19:47.974Z,0.43
2023-05-21T10:20:51.275Z,1.00
2023-05-21T10:21:54.355Z,1.00
2023-05-21T10:22:57.737Z,1.00
2023-05-21T10:24:00.888Z,0.57
2023-05-21T10:25:04.304Z,0.00
2023-05-21T10:26:07.691Z,0.00
2023-05-21T10:27:11.082Z,0.00
2023-05-21T10:28:14.237Z,0.43
2023-05-21T10:29:19.454Z,1.33
2023-05-21T10:30:22.045Z,1.00
2023-05-21T10:31:25.542Z,1.00
2023-05-21T10:32:29.004Z,0.00
2023-05-21T10:33:32.493Z,0.43
2023-05-21T10:34:36.009Z,1.00
2023-05-21T10:35:39.506Z,1.00
2023-05-21T10:36:42.986Z,0.50
2023-05-21T10:37:46.517Z,0.29
2023-05-21T10:38:50.068Z,0.29
2023-05-21T10:39:54.070Z,0.43
2023-05-21T10:40:57.242Z,1.00
2023-05-21T10:42:00.325Z,0.00
2023-05-21T10:43:03.439Z,0.43
2023-05-21T10:44:06.810Z,1.00
2023-05-21T10:45:10.091Z,0.86
2023-05-21T10:46:13.531Z,1.00
2023-05-21T10:47:16.857Z,1.00
2023-05-21T10:48:20.053Z,1.00
2023-05-21T10:49:23.155Z,1.00
2023-05-21T10:50:26.224Z,0.57
2023-05-21T10:51:29.461Z,0.43
2023-05-21T10:52:32.544Z,1.00
2023-05-21T10:53:35.952Z,0.00
2023-05-21T10:54:39.551Z,0.00
2023-05-21T10:55:42.995Z,0.00
2023-05-21T10:56:46.619Z,0.00
2023-05-21T10:57:50.213Z,0.43
2023-05-21T10:58:53.971Z,1.00
2023-05-21T10:59:57.700Z,0.62
2023-05-21T11:01:01.434Z,0.57
2023-05-21T11:02:07.105Z,0.00
2023-05-21T11:03:11.637Z,0.50
2023-05-21T11:04:15.006Z,0.00
2023-05-21T11:05:18.523Z,0.14
2023-05-21T11:06:23.143Z,0.37
2023-05-21T11:07:26.936Z,0.00
2023-05-21T11:08:30.431Z,0.43
2023-05-21T11:09:34.017Z,0.57
2023-05-21T11:10:37.958Z,0.00
2023-05-21T11:11:42.024Z,0.00
2023-05-21T11:12:45.616Z,0.00
2023-05-21T11:13:48.425Z,0.43
2023-05-21T11:14:51.976Z,0.00
2023-05-21T11:15:55.388Z,0.43
2023-05-21T11:16:58.926Z,0.57
2023-05-21T11:18:02.725Z,0.00
2023-05-21T11:19:05.556Z,0.50
2023-05-21T11:20:09.082Z,0.67
2023-05-21T11:21:12.463Z,0.29
2023-05-21T11:22:16.111Z,0.43
2023-05-21T11:23:19.479Z,0.57
2023-05-21T11:24:22.866Z,0.29
2023-05-21T11:25:26.356Z,0.00
2023-05-21T11:26:30.056Z,0.14
2023-05-21T11:27:33.457Z,0.37
2023-05-21T11:28:37.028Z,0.00
2023-05-21T11:29:40.728Z,0.00
2023-05-21T11:30:44.048Z,0.57
2023-05-21T11:31:47.763Z,0.00
2023-05-21T11:32:51.040Z,0.00
2023-05-21T11:33:54.575Z,0.00
2023-05-21T11:34:57.360Z,0.00
2023-05-21T11:36:00.786Z,0.00
2023-05-21T11:37:04.325Z,0.00
2023-05-21T11:38:08.128Z,0.00
2023-05-21T11:39:11.519Z,0.00
2023-05-21T11:40:15.408Z,0.00
2023-05-21T11:41:18.997Z,0.00
2023-05-21T11:42:22.279Z,0.00
2023-05-21T11:43:25.469Z,0.00
2023-05-21T11:44:28.853Z,0.00
2023-05-21T11:45:32.350Z,0.00
2023-05-21T11:46:36.069Z,0.00
2023-05-21T11:47:39.565Z,0.00
2023-05-21T11:48:46.389Z,0.00
2023-05-21T11:49:49.881Z,0.00
2023-05-21T11:50:53.295Z,0.00
2023-05-21T11:51:56.664Z,0.00
2023-05-21T11:53:00.269Z,0.00
2023-05-21T11:54:03.743Z,0.00
2023-05-21T11:55:07.098Z,0.00
2023-05-21T11:56:10.714Z,0.00
2023-05-21T11:57:13.997Z,0.00
2023-05-21T11:58:17.377Z,0.00
2023-05-21T11:59:21.099Z,0.00
2023-05-21T12:00:24.600Z,0.00
2023-05-21T12:01:28.157Z,0.00
2023-05-21T12:02:31.617Z,0.00
2023-05-21T12:03:35.288Z,0.00
2023-05-21T12:04:38.933Z,0.00
2023-05-21T12:05:42.429Z,0.00
2023-05-21T12:06:45.812Z,0.00
2023-05-21T12:07:49.304Z,0.00
2023-05-21T12:08:52.873Z,0.00
2023-05-21T12:09:56.376Z,0.50
2023-05-21T12:11:00.011Z,1.00
2023-05-21T12:12:04.686Z,0.57
2023-05-21T12:13:07.972Z,0.50
2023-05-21T12:14:11.581Z,0.57
2023-05-21T12:15:15.156Z,0.00
2023-05-21T12:16:18.051Z,0.00
2023-05-21T12:17:21.636Z,0.00
2023-05-21T12:18:25.014Z,0.00
2023-05-21T12:19:28.544Z,0.00
2023-05-21T12:20:31.787Z,0.00
2023-05-21T12:21:35.166Z,0.00
2023-05-21T12:22:38.353Z,0.00
2023-05-21T12:23:41.550Z,0.00
2023-05-21T12:24:44.866Z,0.00
2023-05-21T12:25:48.105Z,0.14
2023-05-21T12:26:51.277Z,0.00
2023-05-21T12:27:54.664Z,0.00
2023-05-21T12:28:57.954Z,0.00
2023-05-21T12:30:01.136Z,0.00
2023-05-21T12:31:04.177Z,0.00
2023-05-21T12:32:07.808Z,0.00
2023-05-21T12:33:11.081Z,0.00
2023-05-21T12:34:14.385Z,0.00
2023-05-21T12:35:17.569Z,0.00
2023-05-21T12:36:20.940Z,0.00
2023-05-21T12:37:24.222Z,0.57
2023-05-21T12:38:27.410Z,0.00
2023-05-21T12:39:30.561Z,0.00
2023-05-21T12:40:33.878Z,0.00
2023-05-21T12:41:37.157Z,0.00
2023-05-21T12:42:40.549Z,0.00
2023-05-21T12:43:43.723Z,0.00
2023-05-21T12:44:47.114Z,0.00
2023-05-21T12:45:50.407Z,0.00
2023-05-21T12:46:53.565Z,0.00
2023-05-21T12:47:56.906Z,0.00
2023-05-21T12:49:00.163Z,0.00
2023-05-21T12:50:03.326Z,0.00
2023-05-21T12:51:06.612Z,0.00
2023-05-21T12:52:09.896Z,0.00
2023-05-21T12:53:13.195Z,0.00
2023-05-21T12:54:16.360Z,0.00
2023-05-21T12:55:19.635Z,0.00
2023-05-21T12:56:22.704Z,0.00
2023-05-21T12:57:25.802Z,0.00
2023-05-21T12:58:28.991Z,0.43
2023-05-21T12:59:32.277Z,0.57
2023-05-21T13:00:35.921Z,0.00
2023-05-21T13:01:39.715Z,0.00
2023-05-21T13:02:42.859Z,0.00
2023-05-21T13:03:47.005Z,0.00
2023-05-21T13:04:50.228Z,0.43
2023-05-21T13:05:53.721Z,0.57
2023-05-21T13:06:57.008Z,0.43
2023-05-21T13:08:00.186Z,0.00
2023-05-21T13:09:03.345Z,0.00
2023-05-21T13:10:06.670Z,0.00
2023-05-21T13:11:09.854Z,0.57
2023-05-21T13:12:13.016Z,0.00
2023-05-21T13:13:16.198Z,0.00
2023-05-21T13:14:19.368Z,0.57
2023-05-21T13:15:22.556Z,0.57
2023-05-21T13:16:26.296Z,0.00
2023-05-21T13:17:29.591Z,0.00
2023-05-21T13:18:32.821Z,0.00
2023-05-21T13:19:36.050Z,0.43
2023-05-21T13:20:39.450Z,0.57
2023-05-21T13:21:42.675Z,0.43
2023-05-21T13:22:45.967Z,0.57
2023-05-21T13:23:49.166Z,0.00
2023-05-21T13:24:52.631Z,0.00
2023-05-21T13:25:55.914Z,0.43
2023-05-21T13:26:59.093Z,0.00
2023-05-21T13:28:02.381Z,0.00
2023-05-21T13:29:05.669Z,0.00
2023-05-21T13:30:08.781Z,0.00
2023-05-21T13:31:11.830Z,0.00
2023-05-21T13:32:15.091Z,0.00
2023-05-21T13:33:18.341Z,0.00
2023-05-21T13:34:21.676Z,0.00
2023-05-21T13:35:24.963Z,0.33
2023-05-21T13:36:28.145Z,0.00
2023-05-21T13:37:31.423Z,0.00
2023-05-21T13:38:34.623Z,0.00
2023-05-21T13:39:37.672Z,0.00
2023-05-21T13:40:41.056Z,0.00
2023-05-21T13:41:44.361Z,0.00
2023-05-21T13:42:47.686Z,0.33
2023-05-21T13:43:51.030Z,0.00
2023-05-21T13:44:54.315Z,0.00
2023-05-21T13:45:57.514Z,0.43
2023-05-21T13:47:01.020Z,0.57
2023-05-21T13:48:04.418Z,0.00
2023-05-21T13:49:07.871Z,0.00
2023-05-21T13:50:11.044Z,0.00
2023-05-21T13:51:19.830Z,0.67
2023-05-21T13:52:18.639Z,0.00
2023-05-21T13:53:21.721Z,0.57
2023-05-21T13:54:25.117Z,0.57
2023-05-21T13:55:28.188Z,0.00
2023-05-21T13:56:31.256Z,0.43
2023-05-21T13:57:34.561Z,0.67
2023-05-21T13:58:37.887Z,0.00
2023-05-21T13:59:41.172Z,0.00
2023-05-21T14:00:44.012Z,0.00
2023-05-21T14:01:47.705Z,0.00
2023-05-21T14:02:51.293Z,0.00